首页
METAR-TAF:

METAR-TAF

机场 :

奧爾托國際機場

拉巴斯, 玻利维亚

纬度: 16-31S, 经度: 068-11W, 海拔: 4058米

当前天气观测

该预报发布于14分钟前的04:00 UTC
风速5节,风向东南
温度 9°C
湿度 76%
气压 1038 hPa
能见度10公里或以上
少量云层高于1300英尺
散云层高于7000英尺

METAR: SLLP 260400Z 13005KT 9999 FEW013 SCT070 09/05 Q1038

时间: 00:14 (04:14 UTC)

预报

该预报发布于5小时和29分钟前的22:45 UTC
预报有效从26日的 00点(UTC)到 26日的 24点(UTC)
风速5节,风向东转东南
能见度10公里或以上
少量云层高于1500英尺
成为
从 26日的 06点(UTC)到 26日的 08点(UTC)
能見度: 3000
少量云层高于300英尺
散云层高于1200英尺
附近有雾
成为
从 26日的 12点(UTC)到 26日的 14点(UTC)
能见度10公里或以上
散云层高于1300英尺
短暂存在
从 26日的 19点(UTC)到 26日的 22点(UTC)
风速10节,风向东转东北
少量云层高于2300英尺, 积雨云.

TAF: SLLP 252245Z 2600/2624 12005KT 9999 FEW015 TX17/2620Z TN03/2610Z BECMG 2606/2608 3000E VCFG FEW003 SCT012 BECMG 2612/2614 9999 NSW SCT013 TEMPO 2619/2622 06010KT FEW023CB

超过4000个机场的气象观测和天气预报(METAR&TAF报告)。

可查询的气象台以黄色和红色小点在地图上表示。

将鼠标移到小点上方,可查看气象台名称。

然后点击查看天气观测和预报。

如需切换地图:点击带黑十字的绿色按钮放大地图;点击带横线的绿色按钮缩小地图;或者点击绿色箭头查看邻近地区的地图。


METAR-TAF: